Ak Hamburg — 3FCK3 — position and weather

sailwx.info

Track history (hours):
 
Tides and Currents Weather Stations Pressure Air Temp Water Temp Dewpoint Dewpoint Depression Visibility Wind Speed Wind Dir Waves Ship Positions

Ak Hamburg

Last reported at 2018-Jul-15 15:07 UTC. Time now 2018-Jul-22 18:17 UTC.
Position N 35°42' E 030°02'.

Length 114 m; draft 4.5 m.

Type: Ship. MMSI: 357474000.

Date/timePositionNaut miles runAvg speedWind from/ knotsBaromVisibWave heightAir tempDewpointWater temp
2018-Jul-15 15:07N 35°42' E 030°02'411.1
2018-Jul-15 14:48N 35°40' E 030°06'311.2
2018-Jul-15 14:30N 35°39' E 030°09'611.2
2018-Jul-15 13:55N 35°35' E 030°16'511.3
2018-Jul-15 13:30N 35°33' E 030°21'611.6
2018-Jul-15 12:58N 35°30' E 030°28'13411.2
2018-Jul-15 01:05N 34°29' E 032°53'110.6
2018-Jul-15 01:00N 34°29' E 032°54'910.7
2018-Jul-15 00:12N 34°27' E 033°04'310.6
2018-Jul-14 23:55N 34°26' E 033°08'1510.3
2018-Jul-14 22:26N 34°22' E 033°25'710.2
2018-Jul-14 21:46N 34°21' E 033°33'1110.0
2018-Jul-14 20:40N 34°18' E 033°46'3710.1
2018-Jul-14 17:03N 34°07' E 034°28'110.1
2018-Jul-14 16:54N 34°06' E 034°30'710.3
2018-Jul-14 16:13N 34°05' E 034°38'410.4
2018-Jul-14 15:52N 34°04' E 034°43'810.5
2018-Jul-14 15:08N 34°02' E 034°51'110.5
2018-Jul-14 15:01N 34°01' E 034°53'  
Track history (hours):
 
Tides and Currents Weather Stations Pressure Air Temp Water Temp Dewpoint Dewpoint Depression Visibility Wind Speed Wind Dir Waves Ship Positions

Ak Hamburg

Last reported at 2018-Jul-15 15:07 UTC. Time now 2018-Jul-22 18:17 UTC.
Position N 35°42' E 030°02'.

Length 114 m; draft 4.5 m.

Type: Ship. MMSI: 357474000.

Date/timePositionNaut miles runAvg speedWind from/ knotsBaromVisibWave heightAir tempDewpointWater temp
2018-Jul-15 15:07N 35°42' E 030°02'411.1
2018-Jul-15 14:48N 35°40' E 030°06'311.2
2018-Jul-15 14:30N 35°39' E 030°09'611.2
2018-Jul-15 13:55N 35°35' E 030°16'511.3
2018-Jul-15 13:30N 35°33' E 030°21'611.6
2018-Jul-15 12:58N 35°30' E 030°28'13411.2
2018-Jul-15 01:05N 34°29' E 032°53'110.6
2018-Jul-15 01:00N 34°29' E 032°54'910.7
2018-Jul-15 00:12N 34°27' E 033°04'310.6
2018-Jul-14 23:55N 34°26' E 033°08'1510.3
2018-Jul-14 22:26N 34°22' E 033°25'710.2
2018-Jul-14 21:46N 34°21' E 033°33'1110.0
2018-Jul-14 20:40N 34°18' E 033°46'3710.1
2018-Jul-14 17:03N 34°07' E 034°28'110.1
2018-Jul-14 16:54N 34°06' E 034°30'710.3
2018-Jul-14 16:13N 34°05' E 034°38'410.4
2018-Jul-14 15:52N 34°04' E 034°43'810.5
2018-Jul-14 15:08N 34°02' E 034°51'110.5
2018-Jul-14 15:01N 34°01' E 034°53'  

Dump ship's entire track history